createdAt,value
2023-05-21T00:01:28.664Z,10.47
2023-05-21T00:03:55.516Z,7.83
2023-05-21T00:06:22.333Z,12.70
2023-05-21T00:08:50.437Z,9.93
2023-05-21T00:11:17.167Z,8.50
2023-05-21T00:13:43.859Z,7.83
2023-05-21T00:16:10.632Z,7.60
2023-05-21T00:18:37.542Z,7.67
2023-05-21T00:21:04.228Z,13.53
2023-05-21T00:23:31.010Z,8.67
2023-05-21T00:25:59.373Z,8.50
2023-05-21T00:28:27.272Z,11.00
2023-05-21T00:30:53.970Z,10.77
2023-05-21T00:33:21.218Z,9.30
2023-05-21T00:35:47.968Z,8.80
2023-05-21T00:38:14.729Z,12.90
2023-05-21T00:40:41.541Z,8.00
2023-05-21T00:43:09.597Z,10.87
2023-05-21T00:45:36.653Z,10.23
2023-05-21T00:48:04.376Z,10.77
2023-05-21T00:50:31.286Z,11.20
2023-05-21T00:52:58.251Z,9.77
2023-05-21T00:55:25.263Z,9.20
2023-05-21T00:57:52.173Z,10.10
2023-05-21T01:00:20.980Z,11.00
2023-05-21T01:02:47.909Z,8.00
2023-05-21T01:05:14.703Z,8.50
2023-05-21T01:07:41.779Z,11.10
2023-05-21T01:10:11.207Z,11.77
2023-05-21T01:12:39.496Z,9.13
2023-05-21T01:15:07.540Z,8.43
2023-05-21T01:17:35.864Z,10.60
2023-05-21T01:20:03.388Z,8.50
2023-05-21T01:22:33.038Z,9.97
2023-05-21T01:25:01.142Z,8.73
2023-05-21T01:27:28.112Z,11.53
2023-05-21T01:29:55.520Z,8.97
2023-05-21T01:32:29.638Z,9.80
2023-05-21T01:35:00.537Z,10.83
2023-05-21T01:37:31.420Z,12.40
2023-05-21T01:40:05.679Z,9.60
2023-05-21T01:42:35.988Z,10.70
2023-05-21T01:45:03.965Z,13.03
2023-05-21T01:47:31.966Z,10.10
2023-05-21T01:49:59.584Z,13.17
2023-05-21T01:52:26.398Z,12.63
2023-05-21T01:54:53.130Z,10.93
2023-05-21T01:57:21.258Z,11.87
2023-05-21T01:59:48.092Z,9.13
2023-05-21T02:02:15.020Z,12.13
2023-05-21T02:04:41.844Z,10.30
2023-05-21T02:07:08.565Z,9.80
2023-05-21T02:09:35.237Z,11.83
2023-05-21T02:12:02.839Z,16.63
2023-05-21T02:14:30.896Z,12.53
2023-05-21T02:16:57.620Z,13.77
2023-05-21T02:19:24.470Z,13.60
2023-05-21T02:21:51.259Z,12.97
2023-05-21T02:24:18.000Z,12.00
2023-05-21T02:26:44.800Z,13.50
2023-05-21T02:29:11.511Z,11.57
2023-05-21T02:31:39.630Z,15.13
2023-05-21T02:34:06.457Z,10.60
2023-05-21T02:36:33.372Z,15.20
2023-05-21T02:39:00.175Z,12.90
2023-05-21T02:41:26.965Z,11.23
2023-05-21T02:43:53.634Z,12.83
2023-05-21T02:46:20.438Z,11.60
2023-05-21T02:48:48.498Z,14.00
2023-05-21T02:51:15.237Z,11.27
2023-05-21T02:53:41.951Z,10.90
2023-05-21T02:56:08.708Z,12.17
2023-05-21T02:58:35.482Z,13.03
2023-05-21T03:01:02.173Z,13.43
2023-05-21T03:03:29.041Z,11.53
2023-05-21T03:05:57.212Z,11.77
2023-05-21T03:08:23.985Z,11.43
2023-05-21T03:10:50.660Z,11.30
2023-05-21T03:13:17.467Z,13.57
2023-05-21T03:15:44.329Z,14.67
2023-05-21T03:18:11.270Z,12.40
2023-05-21T03:20:37.989Z,12.33
2023-05-21T03:23:06.093Z,10.60
2023-05-21T03:25:32.811Z,10.33
2023-05-21T03:27:59.524Z,11.30
2023-05-21T03:30:26.259Z,15.83
2023-05-21T03:32:53.127Z,18.43
2023-05-21T03:35:19.957Z,16.53
2023-05-21T03:37:46.666Z,14.63
2023-05-21T03:40:15.067Z,12.37
2023-05-21T03:42:41.863Z,11.83
2023-05-21T03:45:09.399Z,13.90
2023-05-21T03:47:36.179Z,12.10
2023-05-21T03:50:03.468Z,14.27
2023-05-21T03:52:30.229Z,11.13
2023-05-21T03:54:57.021Z,16.17
2023-05-21T03:57:25.056Z,18.13
2023-05-21T03:59:51.777Z,11.73
2023-05-21T04:02:18.715Z,15.30
2023-05-21T04:04:45.789Z,15.40
2023-05-21T04:07:12.580Z,16.17
2023-05-21T04:09:39.320Z,20.60
2023-05-21T04:12:06.434Z,25.40
2023-05-21T04:14:34.984Z,18.63
2023-05-21T04:17:01.664Z,17.10
2023-05-21T04:19:28.452Z,18.87
2023-05-21T04:21:55.322Z,18.10
2023-05-21T04:24:22.079Z,13.30
2023-05-21T04:26:48.790Z,15.30
2023-05-21T04:29:15.563Z,19.47
2023-05-21T04:31:43.973Z,18.83
2023-05-21T04:34:10.732Z,20.33
2023-05-21T04:36:37.493Z,21.47
2023-05-21T04:39:04.225Z,19.83
2023-05-21T04:41:30.933Z,22.53
2023-05-21T04:43:57.668Z,22.70
2023-05-21T04:46:24.426Z,20.37
2023-05-21T04:48:53.577Z,23.03
2023-05-21T04:51:20.526Z,20.83
2023-05-21T04:53:47.209Z,18.37
2023-05-21T04:56:14.409Z,21.37
2023-05-21T04:58:41.107Z,24.43
2023-05-21T05:01:07.853Z,23.47
2023-05-21T05:03:34.753Z,18.57
2023-05-21T05:06:02.785Z,20.93
2023-05-21T05:08:29.593Z,22.77
2023-05-21T05:10:56.345Z,23.17
2023-05-21T05:13:23.128Z,24.83
2023-05-21T05:15:51.052Z,20.17
2023-05-21T05:18:19.038Z,26.30
2023-05-21T05:20:45.858Z,25.37
2023-05-21T05:23:14.336Z,24.40
2023-05-21T05:25:41.042Z,25.07
2023-05-21T05:28:07.708Z,22.37
2023-05-21T05:30:34.461Z,22.23
2023-05-21T05:33:01.323Z,28.13
2023-05-21T05:35:28.008Z,27.97
2023-05-21T05:37:54.885Z,24.47
2023-05-21T05:40:22.944Z,28.67
2023-05-21T05:42:49.623Z,27.13
2023-05-21T05:45:16.395Z,30.70
2023-05-21T05:47:43.139Z,29.37
2023-05-21T05:50:10.459Z,26.70
2023-05-21T05:52:37.226Z,25.87
2023-05-21T05:55:04.679Z,28.47
2023-05-21T05:57:32.731Z,28.63
2023-05-21T05:59:59.403Z,26.13
2023-05-21T06:02:26.207Z,26.37
2023-05-21T06:04:53.056Z,28.93
2023-05-21T06:07:19.772Z,26.60
2023-05-21T06:09:46.469Z,28.80
2023-05-21T06:12:14.962Z,27.43
2023-05-21T06:14:45.165Z,24.60
2023-05-21T06:17:12.218Z,27.97
2023-05-21T06:19:39.518Z,29.83
2023-05-21T06:22:06.399Z,32.13
2023-05-21T06:24:33.294Z,30.20
2023-05-21T06:27:00.139Z,30.93
2023-05-21T06:29:26.828Z,27.87
2023-05-21T06:31:54.909Z,27.10
2023-05-21T06:34:21.722Z,28.70
2023-05-21T06:36:48.696Z,30.90
2023-05-21T06:39:15.411Z,29.37
2023-05-21T06:41:42.141Z,32.50
2023-05-21T06:44:09.196Z,29.27
2023-05-21T06:46:36.005Z,26.83
2023-05-21T06:49:04.150Z,31.57
2023-05-21T06:51:30.983Z,26.47
2023-05-21T06:53:57.718Z,31.43
2023-05-21T06:56:24.578Z,27.50
2023-05-21T06:58:51.350Z,28.80
2023-05-21T07:01:18.379Z,29.73
2023-05-21T07:03:45.263Z,27.63
2023-05-21T07:06:13.352Z,32.33
2023-05-21T07:08:40.084Z,26.40
2023-05-21T07:11:06.878Z,28.13
2023-05-21T07:13:35.933Z,29.43
2023-05-21T07:16:02.740Z,29.87
2023-05-21T07:18:29.512Z,25.77
2023-05-21T07:20:56.252Z,30.03
2023-05-21T07:23:24.360Z,36.10
2023-05-21T07:25:51.383Z,25.20
2023-05-21T07:28:18.110Z,27.43
2023-05-21T07:30:44.906Z,27.87
2023-05-21T07:33:11.757Z,25.50
2023-05-21T07:35:38.745Z,27.67
2023-05-21T07:38:05.659Z,27.20
2023-05-21T07:40:33.788Z,28.43
2023-05-21T07:43:00.592Z,27.20
2023-05-21T07:45:27.392Z,25.03
2023-05-21T07:47:54.202Z,27.17
2023-05-21T07:50:21.026Z,24.53
2023-05-21T07:52:47.846Z,26.30
2023-05-21T07:55:14.683Z,28.73
2023-05-21T07:57:42.800Z,25.73
2023-05-21T08:00:10.304Z,28.43
2023-05-21T08:02:37.486Z,33.33
2023-05-21T08:05:04.905Z,26.90
2023-05-21T08:07:31.688Z,27.33
2023-05-21T08:09:58.864Z,27.00
2023-05-21T08:12:25.739Z,26.10
2023-05-21T08:14:53.817Z,27.47
2023-05-21T08:17:20.538Z,24.33
2023-05-21T08:19:47.286Z,27.23
2023-05-21T08:22:14.025Z,25.00
2023-05-21T08:24:40.770Z,31.40
2023-05-21T08:27:07.629Z,24.97
2023-05-21T08:29:34.455Z,30.07
2023-05-21T08:32:02.692Z,29.40
2023-05-21T08:34:29.470Z,25.37
2023-05-21T08:36:56.251Z,27.80
2023-05-21T08:39:23.056Z,25.73
2023-05-21T08:41:54.981Z,29.10
2023-05-21T08:44:25.727Z,24.90
2023-05-21T08:46:54.853Z,25.20
2023-05-21T08:49:29.578Z,24.13
2023-05-21T08:51:57.300Z,26.00
2023-05-21T08:54:24.177Z,25.00
2023-05-21T08:56:52.839Z,26.13
2023-05-21T08:59:21.109Z,23.63
2023-05-21T09:01:49.324Z,26.40
2023-05-21T09:04:21.224Z,25.47
2023-05-21T09:06:51.224Z,24.70
2023-05-21T09:09:25.001Z,24.90
2023-05-21T09:11:51.756Z,25.50
2023-05-21T09:14:20.855Z,27.53
2023-05-21T09:16:47.583Z,25.07
2023-05-21T09:19:14.482Z,24.40
2023-05-21T09:21:41.392Z,25.20
2023-05-21T09:24:10.242Z,24.87
2023-05-21T09:26:36.944Z,26.40
2023-05-21T09:29:03.757Z,26.43
2023-05-21T09:31:30.607Z,23.90
2023-05-21T09:33:57.396Z,25.27
2023-05-21T09:36:24.605Z,22.67
2023-05-21T09:38:51.593Z,22.63
2023-05-21T09:41:21.896Z,22.10
2023-05-21T09:43:49.211Z,21.90
2023-05-21T09:46:16.265Z,22.03
2023-05-21T09:48:43.512Z,23.03
2023-05-21T09:51:12.101Z,23.47
2023-05-21T09:53:49.999Z,22.63
2023-05-21T09:56:20.794Z,24.50
2023-05-21T09:58:47.561Z,18.90
2023-05-21T10:01:14.457Z,20.77
2023-05-21T10:03:43.124Z,20.43
2023-05-21T10:06:11.368Z,20.40
2023-05-21T10:08:44.448Z,21.63
2023-05-21T10:11:12.236Z,23.30
2023-05-21T10:13:46.902Z,21.13
2023-05-21T10:16:14.155Z,20.03
2023-05-21T10:18:44.105Z,19.97
2023-05-21T10:21:11.124Z,19.47
2023-05-21T10:23:38.602Z,19.27
2023-05-21T10:26:06.897Z,19.73
2023-05-21T10:28:34.812Z,17.23
2023-05-21T10:31:04.162Z,19.23
2023-05-21T10:33:31.660Z,19.63
2023-05-21T10:35:58.704Z,18.20
2023-05-21T10:38:25.922Z,18.77
2023-05-21T10:40:53.980Z,19.10
2023-05-21T10:43:38.391Z,18.57
2023-05-21T10:46:36.398Z,18.33
2023-05-21T10:49:21.754Z,18.60
2023-05-21T10:51:59.059Z,19.50
2023-05-21T10:55:07.744Z,18.67
2023-05-21T10:58:02.259Z,17.87
2023-05-21T11:00:30.207Z,17.10
2023-05-21T11:02:59.044Z,17.00
2023-05-21T11:05:50.675Z,18.03
2023-05-21T11:08:24.861Z,16.67
2023-05-21T11:10:52.816Z,16.97
2023-05-21T11:13:19.609Z,19.47
2023-05-21T11:16:06.006Z,18.77
2023-05-21T11:18:58.222Z,17.17
2023-05-21T11:21:28.739Z,15.50
2023-05-21T11:23:56.393Z,16.33
2023-05-21T11:26:24.293Z,16.83
2023-05-21T11:28:51.300Z,16.13
2023-05-21T11:31:24.336Z,17.00
2023-05-21T11:34:11.754Z,16.67
2023-05-21T11:36:39.224Z,16.83
2023-05-21T11:39:09.408Z,16.93
2023-05-21T11:41:50.979Z,17.07
2023-05-21T11:44:17.745Z,16.67
2023-05-21T11:46:44.587Z,17.00
2023-05-21T11:49:13.165Z,17.33
2023-05-21T11:51:40.646Z,17.90
2023-05-21T11:54:09.222Z,16.77
2023-05-21T11:56:38.435Z,17.73
2023-05-21T11:59:05.242Z,16.17
2023-05-21T12:01:31.987Z,18.63
2023-05-21T12:03:58.858Z,16.73
2023-05-21T12:06:28.017Z,17.43
2023-05-21T12:08:55.000Z,16.53
2023-05-21T12:11:21.755Z,15.87
2023-05-21T12:13:48.616Z,17.60
2023-05-21T12:16:15.656Z,17.50
2023-05-21T12:18:42.547Z,16.17
2023-05-21T12:21:11.679Z,17.87
2023-05-21T12:23:40.661Z,17.13
2023-05-21T12:26:07.444Z,16.90
2023-05-21T12:28:34.381Z,17.47
2023-05-21T12:31:01.164Z,21.37
2023-05-21T12:33:34.199Z,19.50
2023-05-21T12:36:01.010Z,17.00
2023-05-21T12:38:30.401Z,17.63
2023-05-21T12:41:03.735Z,16.60
2023-05-21T12:43:31.995Z,16.33
2023-05-21T12:45:58.893Z,17.17
2023-05-21T12:48:25.692Z,17.13
2023-05-21T12:50:52.514Z,16.37
2023-05-21T12:53:19.243Z,18.73
2023-05-21T12:55:46.213Z,16.77
2023-05-21T12:58:14.688Z,19.03
2023-05-21T13:00:42.160Z,18.23
2023-05-21T13:03:08.992Z,18.00
2023-05-21T13:05:35.924Z,17.30
2023-05-21T13:08:02.751Z,19.20
2023-05-21T13:10:29.540Z,17.07
2023-05-21T13:12:56.342Z,18.00
2023-05-21T13:15:24.466Z,16.93
2023-05-21T13:17:52.553Z,17.43
2023-05-21T13:20:21.183Z,17.90
2023-05-21T13:22:49.760Z,18.90
2023-05-21T13:25:18.051Z,17.57
2023-05-21T13:27:45.253Z,17.40
2023-05-21T13:30:12.542Z,17.20
2023-05-21T13:32:41.842Z,17.93
2023-05-21T13:35:09.515Z,18.50
2023-05-21T13:37:36.485Z,17.80
2023-05-21T13:40:03.929Z,18.67
2023-05-21T13:42:30.707Z,18.50
2023-05-21T13:44:57.619Z,17.87
2023-05-21T13:47:24.465Z,19.17
2023-05-21T13:49:52.632Z,18.10
2023-05-21T13:52:20.232Z,17.50
2023-05-21T13:54:47.352Z,18.10
2023-05-21T13:57:14.288Z,16.57
2023-05-21T13:59:41.100Z,17.20
2023-05-21T14:02:09.210Z,18.07
2023-05-21T14:04:38.988Z,17.37
2023-05-21T14:07:07.684Z,17.47
2023-05-21T14:09:34.782Z,18.70
2023-05-21T14:12:01.647Z,16.93
2023-05-21T14:14:28.440Z,17.93
2023-05-21T14:16:55.357Z,18.40
2023-05-21T14:19:22.298Z,22.63
2023-05-21T14:21:51.429Z,15.77
2023-05-21T14:24:19.974Z,16.40
2023-05-21T14:26:46.729Z,16.60
2023-05-21T14:29:14.195Z,16.73
2023-05-21T14:31:41.086Z,17.63
2023-05-21T14:34:07.895Z,17.00
2023-05-21T14:36:34.768Z,18.37
2023-05-21T14:39:01.605Z,15.93
2023-05-21T14:41:29.816Z,16.40
2023-05-21T14:43:56.560Z,17.77
2023-05-21T14:46:23.351Z,17.17
2023-05-21T14:48:50.277Z,15.23
2023-05-21T14:51:17.051Z,14.60
2023-05-21T14:53:43.866Z,15.20
2023-05-21T14:56:10.695Z,13.93
2023-05-21T14:58:38.789Z,16.30
2023-05-21T15:01:05.734Z,17.23
2023-05-21T15:03:32.530Z,13.80
2023-05-21T15:05:59.534Z,13.57
2023-05-21T15:08:26.267Z,14.20
2023-05-21T15:10:52.992Z,10.77
2023-05-21T15:13:19.797Z,12.83
2023-05-21T15:15:47.925Z,12.33
2023-05-21T15:18:14.758Z,13.63
2023-05-21T15:20:41.484Z,10.83
2023-05-21T15:23:16.672Z,13.37
2023-05-21T15:25:44.308Z,11.70
2023-05-21T15:28:11.052Z,11.73
2023-05-21T15:30:37.751Z,12.87
2023-05-21T15:33:05.850Z,12.60
2023-05-21T15:35:32.959Z,11.40
2023-05-21T15:37:59.872Z,11.87
2023-05-21T15:40:27.391Z,12.80
2023-05-21T15:42:54.343Z,13.97
2023-05-21T15:45:21.240Z,13.50
2023-05-21T15:47:48.084Z,12.03
2023-05-21T15:50:16.394Z,11.83
2023-05-21T15:52:43.091Z,11.37
2023-05-21T15:55:10.090Z,11.20
2023-05-21T15:57:36.889Z,13.37
2023-05-21T16:00:04.111Z,12.57
2023-05-21T16:02:30.917Z,12.10
2023-05-21T16:04:57.784Z,11.47
2023-05-21T16:07:25.822Z,19.57
2023-05-21T16:09:52.543Z,13.70
2023-05-21T16:12:19.281Z,12.53
2023-05-21T16:14:48.390Z,12.20
2023-05-21T16:17:15.119Z,12.20
2023-05-21T16:19:41.854Z,14.57
2023-05-21T16:22:10.632Z,12.27
2023-05-21T16:24:38.997Z,12.93
2023-05-21T16:27:05.931Z,12.67
2023-05-21T16:29:32.690Z,12.30
2023-05-21T16:31:59.409Z,12.13
2023-05-21T16:34:26.161Z,13.10
2023-05-21T16:36:52.880Z,13.00
2023-05-21T16:39:19.589Z,11.73
2023-05-21T16:41:47.709Z,11.17
2023-05-21T16:44:14.591Z,12.10
2023-05-21T16:46:41.389Z,12.53
2023-05-21T16:49:08.122Z,10.77
2023-05-21T16:51:34.885Z,12.40
2023-05-21T16:54:01.622Z,12.60
2023-05-21T16:56:28.349Z,16.50
2023-05-21T16:58:56.416Z,11.27
2023-05-21T17:01:23.233Z,10.47
2023-05-21T17:03:50.162Z,15.70
2023-05-21T17:06:17.084Z,16.13
2023-05-21T17:08:43.995Z,11.93
2023-05-21T17:11:10.743Z,16.73
2023-05-21T17:13:37.492Z,10.60
2023-05-21T17:16:05.903Z,15.30
2023-05-21T17:19:55.791Z,11.90
2023-05-21T17:21:22.092Z,13.53
2023-05-21T17:23:48.869Z,10.27
2023-05-21T17:26:15.593Z,11.63
2023-05-21T17:28:42.336Z,11.40
2023-05-21T17:31:10.451Z,10.47
2023-05-21T17:33:37.215Z,10.13
2023-05-21T17:36:15.993Z,11.47
2023-05-21T17:38:42.773Z,11.87
2023-05-21T17:41:09.629Z,9.80
2023-05-21T17:43:36.308Z,11.80
2023-05-21T17:46:03.034Z,13.47
2023-05-21T17:48:31.185Z,12.80
2023-05-21T17:50:57.904Z,14.20
2023-05-21T17:53:24.580Z,10.70
2023-05-21T17:55:51.277Z,10.77
2023-05-21T17:58:17.987Z,13.07
2023-05-21T18:00:44.936Z,9.43
2023-05-21T18:03:11.786Z,9.53
2023-05-21T18:05:39.960Z,10.40
2023-05-21T18:08:06.802Z,10.63
2023-05-21T18:10:33.601Z,11.10
2023-05-21T18:13:00.318Z,11.70
2023-05-21T18:15:27.170Z,10.53
2023-05-21T18:17:53.913Z,10.70
2023-05-21T18:20:20.650Z,10.60
2023-05-21T18:22:48.681Z,10.97
2023-05-21T18:25:15.416Z,13.83
2023-05-21T18:27:42.121Z,10.37
2023-05-21T18:30:09.750Z,10.07
2023-05-21T18:32:36.525Z,10.60
2023-05-21T18:35:03.352Z,16.40
2023-05-21T18:37:30.122Z,10.73
2023-05-21T18:39:58.209Z,11.10
2023-05-21T18:42:25.331Z,10.93
2023-05-21T18:44:52.087Z,12.53
2023-05-21T18:47:18.773Z,17.30
2023-05-21T18:49:45.476Z,11.37
2023-05-21T18:52:12.149Z,11.13
2023-05-21T18:54:38.836Z,12.97
2023-05-21T18:57:07.013Z,11.30
2023-05-21T18:59:33.873Z,12.00
2023-05-21T19:02:00.676Z,13.27
2023-05-21T19:04:27.476Z,11.90
2023-05-21T19:06:54.170Z,12.17
2023-05-21T19:09:20.861Z,10.27
2023-05-21T19:11:47.553Z,14.50
2023-05-21T19:14:15.576Z,10.97
2023-05-21T19:16:42.359Z,10.63
2023-05-21T19:19:09.151Z,10.83
2023-05-21T19:21:35.987Z,9.37
2023-05-21T19:24:05.431Z,11.00
2023-05-21T19:26:32.638Z,19.73
2023-05-21T19:28:59.385Z,13.40
2023-05-21T19:31:27.513Z,10.87
2023-05-21T19:33:54.305Z,13.30
2023-05-21T19:36:21.413Z,11.23
2023-05-21T19:38:48.667Z,11.93
2023-05-21T19:41:15.567Z,10.40
2023-05-21T19:43:42.329Z,12.70
2023-05-21T19:46:09.561Z,13.63
2023-05-21T19:48:37.741Z,11.03
2023-05-21T19:51:04.624Z,11.53
2023-05-21T19:53:31.304Z,9.40
2023-05-21T19:55:58.030Z,14.93
2023-05-21T19:58:24.765Z,9.80
2023-05-21T20:00:51.550Z,11.23
2023-05-21T20:03:18.450Z,12.30
2023-05-21T20:05:46.632Z,9.67
2023-05-21T20:08:13.423Z,9.93
2023-05-21T20:10:40.259Z,12.00
2023-05-21T20:13:07.072Z,10.40
2023-05-21T20:15:33.773Z,10.80
2023-05-21T20:18:00.706Z,17.93
2023-05-21T20:20:31.045Z,11.70
2023-05-21T20:22:59.070Z,11.67
2023-05-21T20:25:25.796Z,11.77
2023-05-21T20:27:52.457Z,11.30
2023-05-21T20:30:19.312Z,10.57
2023-05-21T20:32:46.120Z,10.00
2023-05-21T20:35:12.843Z,9.93
2023-05-21T20:37:39.666Z,10.03
2023-05-21T20:40:09.653Z,11.17
2023-05-21T20:42:36.364Z,11.50
2023-05-21T20:45:03.576Z,16.10
2023-05-21T20:47:30.368Z,10.87
2023-05-21T20:49:57.243Z,10.27
2023-05-21T20:52:24.044Z,11.23
2023-05-21T20:54:51.073Z,11.20
2023-05-21T20:57:19.087Z,11.83
2023-05-21T20:59:45.770Z,10.10
2023-05-21T21:02:12.494Z,9.87
2023-05-21T21:04:39.283Z,10.60
2023-05-21T21:07:06.102Z,11.20
2023-05-21T21:09:32.790Z,11.23
2023-05-21T21:11:59.572Z,11.03
2023-05-21T21:14:28.370Z,9.77
2023-05-21T21:16:56.089Z,11.70
2023-05-21T21:19:22.829Z,10.53
2023-05-21T21:21:49.781Z,12.17
2023-05-21T21:24:16.550Z,9.70
2023-05-21T21:26:43.348Z,11.23
2023-05-21T21:29:10.048Z,12.00
2023-05-21T21:31:38.188Z,12.10
2023-05-21T21:34:05.112Z,10.73
2023-05-21T21:36:31.992Z,11.03
2023-05-21T21:38:58.810Z,12.17
2023-05-21T21:41:25.639Z,15.37
2023-05-21T21:43:52.359Z,11.47
2023-05-21T21:46:19.128Z,10.13
2023-05-21T21:48:47.184Z,10.37
2023-05-21T21:51:14.012Z,10.50
2023-05-21T21:53:40.900Z,11.70
2023-05-21T21:56:07.676Z,9.90
2023-05-21T21:58:34.361Z,15.23
2023-05-21T22:01:01.100Z,12.47
2023-05-21T22:03:27.812Z,12.50
2023-05-21T22:05:55.917Z,10.50
2023-05-21T22:08:22.632Z,10.27
2023-05-21T22:10:49.457Z,15.37
2023-05-21T22:13:16.171Z,10.23
2023-05-21T22:15:42.874Z,11.13
2023-05-21T22:18:09.692Z,12.33
2023-05-21T22:20:36.674Z,11.63
2023-05-21T22:23:05.660Z,10.13
2023-05-21T22:25:32.354Z,10.70
2023-05-21T22:27:59.077Z,17.30
2023-05-21T22:30:25.771Z,10.30
2023-05-21T22:32:52.564Z,9.30
2023-05-21T22:35:19.577Z,11.40
2023-05-21T22:37:46.411Z,10.90
2023-05-21T22:40:14.488Z,9.30
2023-05-21T22:42:41.342Z,10.67
2023-05-21T22:45:08.974Z,9.53
2023-05-21T22:47:35.748Z,8.63
2023-05-21T22:50:02.899Z,9.93
2023-05-21T22:52:29.757Z,11.63
2023-05-21T22:54:56.514Z,8.73
2023-05-21T22:57:24.656Z,8.60
2023-05-21T22:59:51.351Z,9.93
2023-05-21T23:02:18.099Z,9.43
2023-05-21T23:04:44.872Z,8.40
2023-05-21T23:07:12.031Z,9.80
2023-05-21T23:09:38.806Z,9.37
2023-05-21T23:12:06.401Z,8.27
2023-05-21T23:14:34.483Z,7.97
2023-05-21T23:17:01.233Z,8.80
2023-05-21T23:19:28.122Z,8.50
2023-05-21T23:21:55.138Z,9.30
2023-05-21T23:24:21.843Z,7.43
2023-05-21T23:26:48.509Z,8.03
2023-05-21T23:29:15.219Z,8.17
2023-05-21T23:31:43.407Z,10.43
2023-05-21T23:34:10.235Z,9.00
2023-05-21T23:36:36.946Z,8.53
2023-05-21T23:39:03.991Z,9.00
2023-05-21T23:41:30.779Z,10.77
2023-05-21T23:43:57.489Z,8.17
2023-05-21T23:46:24.407Z,7.57
2023-05-21T23:48:52.495Z,9.07
2023-05-21T23:51:19.225Z,9.57
2023-05-21T23:53:45.949Z,7.10
2023-05-21T23:56:12.714Z,8.77
2023-05-21T23:58:39.474Z,8.23
